sensor_id;sensor_type;location;lat;lon;timestamp;P1;durP1;ratioP1;P2;durP2;ratioP2
35042;SDS011;21230;51.170;17.024;2022-12-29T00:01:33;5.88;;;2.35;;
35042;SDS011;21230;51.170;17.024;2022-12-29T00:04:00;7.63;;;3.42;;
35042;SDS011;21230;51.170;17.024;2022-12-29T00:06:27;6.13;;;3.15;;
35042;SDS011;21230;51.170;17.024;2022-12-29T00:08:53;8.35;;;3.45;;
35042;SDS011;21230;51.170;17.024;2022-12-29T00:11:26;4.57;;;2.47;;
35042;SDS011;21230;51.170;17.024;2022-12-29T00:13:52;5.00;;;2.53;;
35042;SDS011;21230;51.170;17.024;2022-12-29T00:16:37;5.03;;;2.28;;
35042;SDS011;21230;51.170;17.024;2022-12-29T00:19:05;11.30;;;3.83;;
35042;SDS011;21230;51.170;17.024;2022-12-29T00:21:31;6.88;;;3.28;;
35042;SDS011;21230;51.170;17.024;2022-12-29T00:24:16;5.78;;;3.10;;
35042;SDS011;21230;51.170;17.024;2022-12-29T00:26:53;8.43;;;3.45;;
35042;SDS011;21230;51.170;17.024;2022-12-29T00:29:41;8.07;;;4.38;;
35042;SDS011;21230;51.170;17.024;2022-12-29T00:32:26;6.97;;;4.18;;
35042;SDS011;21230;51.170;17.024;2022-12-29T00:35:11;6.60;;;4.35;;
35042;SDS011;21230;51.170;17.024;2022-12-29T00:37:44;6.25;;;3.22;;
35042;SDS011;21230;51.170;17.024;2022-12-29T00:40:31;8.27;;;3.30;;
35042;SDS011;21230;51.170;17.024;2022-12-29T00:43:16;4.43;;;2.83;;
35042;SDS011;21230;51.170;17.024;2022-12-29T00:46:00;4.78;;;2.97;;
35042;SDS011;21230;51.170;17.024;2022-12-29T00:48:26;9.55;;;4.15;;
35042;SDS011;21230;51.170;17.024;2022-12-29T00:51:10;4.72;;;2.78;;
35042;SDS011;21230;51.170;17.024;2022-12-29T00:53:36;7.68;;;3.50;;
35042;SDS011;21230;51.170;17.024;2022-12-29T00:56:01;5.80;;;2.90;;
35042;SDS011;21230;51.170;17.024;2022-12-29T00:58:28;7.30;;;3.28;;
35042;SDS011;21230;51.170;17.024;2022-12-29T01:01:05;4.97;;;2.80;;
35042;SDS011;21230;51.170;17.024;2022-12-29T01:03:32;7.55;;;5.55;;
35042;SDS011;21230;51.170;17.024;2022-12-29T01:05:59;8.07;;;3.92;;
35042;SDS011;21230;51.170;17.024;2022-12-29T01:08:27;5.38;;;3.35;;
35042;SDS011;21230;51.170;17.024;2022-12-29T01:10:57;8.32;;;3.28;;
35042;SDS011;21230;51.170;17.024;2022-12-29T01:13:27;11.32;;;4.13;;
35042;SDS011;21230;51.170;17.024;2022-12-29T01:15:53;10.20;;;3.60;;
35042;SDS011;21230;51.170;17.024;2022-12-29T01:18:19;6.30;;;3.53;;
35042;SDS011;21230;51.170;17.024;2022-12-29T01:20:46;5.53;;;3.45;;
35042;SDS011;21230;51.170;17.024;2022-12-29T01:23:12;11.52;;;4.07;;
35042;SDS011;21230;51.170;17.024;2022-12-29T01:25:38;3.67;;;2.60;;
35042;SDS011;21230;51.170;17.024;2022-12-29T01:28:04;8.77;;;3.45;;
35042;SDS011;21230;51.170;17.024;2022-12-29T01:30:32;7.03;;;2.88;;
35042;SDS011;21230;51.170;17.024;2022-12-29T01:32:58;4.55;;;2.83;;
35042;SDS011;21230;51.170;17.024;2022-12-29T01:35:24;4.53;;;2.63;;
35042;SDS011;21230;51.170;17.024;2022-12-29T01:37:49;5.93;;;3.13;;
35042;SDS011;21230;51.170;17.024;2022-12-29T01:40:15;3.20;;;2.15;;
35042;SDS011;21230;51.170;17.024;2022-12-29T01:42:41;4.97;;;2.47;;
35042;SDS011;21230;51.170;17.024;2022-12-29T01:45:14;4.63;;;2.55;;
35042;SDS011;21230;51.170;17.024;2022-12-29T01:52:55;6.53;;;3.55;;
35042;SDS011;21230;51.170;17.024;2022-12-29T01:55:27;6.95;;;3.05;;
35042;SDS011;21230;51.170;17.024;2022-12-29T01:57:56;4.15;;;2.70;;
35042;SDS011;21230;51.170;17.024;2022-12-29T02:00:27;4.95;;;2.67;;
35042;SDS011;21230;51.170;17.024;2022-12-29T02:02:53;4.03;;;3.03;;
35042;SDS011;21230;51.170;17.024;2022-12-29T02:05:32;10.48;;;4.32;;
35042;SDS011;21230;51.170;17.024;2022-12-29T02:08:09;5.05;;;2.60;;
35042;SDS011;21230;51.170;17.024;2022-12-29T02:10:38;4.67;;;2.37;;
35042;SDS011;21230;51.170;17.024;2022-12-29T02:13:05;5.22;;;3.13;;
35042;SDS011;21230;51.170;17.024;2022-12-29T02:30:01;3.97;;;2.20;;
35042;SDS011;21230;51.170;17.024;2022-12-29T02:40:31;4.53;;;3.22;;
35042;SDS011;21230;51.170;17.024;2022-12-29T02:43:52;6.72;;;2.55;;
35042;SDS011;21230;51.170;17.024;2022-12-29T02:48:27;2.67;;;2.35;;
35042;SDS011;21230;51.170;17.024;2022-12-29T02:51:03;7.35;;;4.07;;
35042;SDS011;21230;51.170;17.024;2022-12-29T02:53:34;5.03;;;3.55;;
35042;SDS011;21230;51.170;17.024;2022-12-29T02:56:20;4.60;;;2.47;;
35042;SDS011;21230;51.170;17.024;2022-12-29T02:58:46;3.38;;;2.78;;
35042;SDS011;21230;51.170;17.024;2022-12-29T03:05:15;4.28;;;2.88;;
35042;SDS011;21230;51.170;17.024;2022-12-29T03:13:17;3.88;;;1.70;;
35042;SDS011;21230;51.170;17.024;2022-12-29T03:16:33;2.65;;;1.95;;
35042;SDS011;21230;51.170;17.024;2022-12-29T03:24:40;1.40;;;1.30;;
35042;SDS011;21230;51.170;17.024;2022-12-29T03:27:14;7.25;;;3.42;;
35042;SDS011;21230;51.170;17.024;2022-12-29T03:29:47;4.70;;;2.60;;
35042;SDS011;21230;51.170;17.024;2022-12-29T03:32:18;6.93;;;2.80;;
35042;SDS011;21230;51.170;17.024;2022-12-29T03:34:51;2.92;;;1.85;;
35042;SDS011;21230;51.170;17.024;2022-12-29T03:37:20;2.50;;;1.95;;
35042;SDS011;21230;51.170;17.024;2022-12-29T03:39:51;6.32;;;2.33;;
35042;SDS011;21230;51.170;17.024;2022-12-29T03:42:18;4.00;;;2.28;;
35042;SDS011;21230;51.170;17.024;2022-12-29T03:44:46;4.90;;;2.67;;
35042;SDS011;21230;51.170;17.024;2022-12-29T03:47:13;3.50;;;2.22;;
35042;SDS011;21230;51.170;17.024;2022-12-29T03:49:40;5.07;;;2.90;;
35042;SDS011;21230;51.170;17.024;2022-12-29T03:52:06;14.55;;;5.95;;
35042;SDS011;21230;51.170;17.024;2022-12-29T03:54:32;30.85;;;15.20;;
35042;SDS011;21230;51.170;17.024;2022-12-29T03:56:58;40.85;;;18.15;;
35042;SDS011;21230;51.170;17.024;2022-12-29T03:59:24;11.32;;;4.30;;
35042;SDS011;21230;51.170;17.024;2022-12-29T04:01:50;5.03;;;2.60;;
35042;SDS011;21230;51.170;17.024;2022-12-29T09:15:40;8.68;;;5.03;;
35042;SDS011;21230;51.170;17.024;2022-12-29T09:18:12;6.43;;;5.07;;
35042;SDS011;21230;51.170;17.024;2022-12-29T09:20:38;9.32;;;5.82;;
35042;SDS011;21230;51.170;17.024;2022-12-29T09:23:04;20.63;;;7.15;;
35042;SDS011;21230;51.170;17.024;2022-12-29T09:25:33;10.15;;;4.90;;
35042;SDS011;21230;51.170;17.024;2022-12-29T09:27:59;14.15;;;5.45;;
35042;SDS011;21230;51.170;17.024;2022-12-29T09:30:32;19.48;;;7.85;;
35042;SDS011;21230;51.170;17.024;2022-12-29T09:32:58;20.40;;;7.80;;
35042;SDS011;21230;51.170;17.024;2022-12-29T09:35:24;11.98;;;4.70;;
35042;SDS011;21230;51.170;17.024;2022-12-29T09:37:50;10.88;;;3.83;;
35042;SDS011;21230;51.170;17.024;2022-12-29T09:40:24;7.50;;;3.90;;
35042;SDS011;21230;51.170;17.024;2022-12-29T09:42:59;5.50;;;3.15;;
35042;SDS011;21230;51.170;17.024;2022-12-29T09:45:36;12.70;;;3.45;;
35042;SDS011;21230;51.170;17.024;2022-12-29T09:48:18;6.97;;;3.63;;
35042;SDS011;21230;51.170;17.024;2022-12-29T09:50:49;7.88;;;4.25;;
35042;SDS011;21230;51.170;17.024;2022-12-29T09:53:36;7.70;;;3.88;;
35042;SDS011;21230;51.170;17.024;2022-12-29T09:56:10;8.38;;;3.92;;
35042;SDS011;21230;51.170;17.024;2022-12-29T09:58:52;6.80;;;4.80;;
35042;SDS011;21230;51.170;17.024;2022-12-29T10:01:31;6.72;;;3.53;;
35042;SDS011;21230;51.170;17.024;2022-12-29T10:04:17;12.95;;;3.13;;
35042;SDS011;21230;51.170;17.024;2022-12-29T10:06:46;9.25;;;3.63;;
35042;SDS011;21230;51.170;17.024;2022-12-29T10:09:46;4.57;;;2.67;;
35042;SDS011;21230;51.170;17.024;2022-12-29T10:17:54;8.88;;;3.25;;
35042;SDS011;21230;51.170;17.024;2022-12-29T10:23:53;16.70;;;4.45;;
35042;SDS011;21230;51.170;17.024;2022-12-29T10:26:21;5.50;;;3.40;;
35042;SDS011;21230;51.170;17.024;2022-12-29T10:28:56;4.68;;;3.55;;
35042;SDS011;21230;51.170;17.024;2022-12-29T10:34:19;4.63;;;2.85;;
35042;SDS011;21230;51.170;17.024;2022-12-29T10:37:00;7.50;;;4.00;;
35042;SDS011;21230;51.170;17.024;2022-12-29T10:39:43;7.15;;;3.20;;
35042;SDS011;21230;51.170;17.024;2022-12-29T10:42:15;6.38;;;3.60;;
35042;SDS011;21230;51.170;17.024;2022-12-29T10:44:54;8.98;;;4.53;;
35042;SDS011;21230;51.170;17.024;2022-12-29T10:47:22;7.00;;;3.42;;
35042;SDS011;21230;51.170;17.024;2022-12-29T10:49:51;5.78;;;3.40;;
35042;SDS011;21230;51.170;17.024;2022-12-29T10:52:19;6.07;;;3.25;;
35042;SDS011;21230;51.170;17.024;2022-12-29T10:57:27;4.65;;;2.65;;
35042;SDS011;21230;51.170;17.024;2022-12-29T11:00:22;8.57;;;3.20;;
35042;SDS011;21230;51.170;17.024;2022-12-29T11:06:14;13.57;;;5.83;;
35042;SDS011;21230;51.170;17.024;2022-12-29T11:08:53;7.63;;;4.43;;
35042;SDS011;21230;51.170;17.024;2022-12-29T11:11:32;8.18;;;4.28;;
35042;SDS011;21230;51.170;17.024;2022-12-29T11:14:10;8.02;;;3.42;;
35042;SDS011;21230;51.170;17.024;2022-12-29T11:19:10;13.05;;;7.05;;
35042;SDS011;21230;51.170;17.024;2022-12-29T11:21:48;12.23;;;3.90;;
35042;SDS011;21230;51.170;17.024;2022-12-29T11:24:21;7.53;;;3.38;;
35042;SDS011;21230;51.170;17.024;2022-12-29T11:26:53;12.05;;;3.45;;
35042;SDS011;21230;51.170;17.024;2022-12-29T11:29:24;6.22;;;3.80;;
35042;SDS011;21230;51.170;17.024;2022-12-29T11:37:02;7.28;;;4.25;;
35042;SDS011;21230;51.170;17.024;2022-12-29T11:39:40;6.50;;;2.88;;
35042;SDS011;21230;51.170;17.024;2022-12-29T11:42:17;5.18;;;2.60;;
35042;SDS011;21230;51.170;17.024;2022-12-29T11:44:45;7.22;;;3.83;;
35042;SDS011;21230;51.170;17.024;2022-12-29T11:47:23;7.10;;;3.45;;
35042;SDS011;21230;51.170;17.024;2022-12-29T11:49:54;6.65;;;3.15;;
35042;SDS011;21230;51.170;17.024;2022-12-29T11:52:24;10.18;;;3.55;;
35042;SDS011;21230;51.170;17.024;2022-12-29T11:54:53;5.28;;;3.10;;
35042;SDS011;21230;51.170;17.024;2022-12-29T11:57:21;9.82;;;5.30;;
35042;SDS011;21230;51.170;17.024;2022-12-29T11:59:53;8.65;;;3.05;;
35042;SDS011;21230;51.170;17.024;2022-12-29T12:02:30;8.55;;;3.70;;
35042;SDS011;21230;51.170;17.024;2022-12-29T12:05:21;6.20;;;4.63;;
35042;SDS011;21230;51.170;17.024;2022-12-29T12:11:10;5.72;;;2.85;;
35042;SDS011;21230;51.170;17.024;2022-12-29T12:16:37;7.20;;;3.72;;
35042;SDS011;21230;51.170;17.024;2022-12-29T12:21:45;7.65;;;3.53;;
35042;SDS011;21230;51.170;17.024;2022-12-29T12:24:29;5.88;;;3.55;;
35042;SDS011;21230;51.170;17.024;2022-12-29T12:34:45;6.95;;;3.20;;
35042;SDS011;21230;51.170;17.024;2022-12-29T12:37:24;6.88;;;4.05;;
35042;SDS011;21230;51.170;17.024;2022-12-29T12:50:57;5.57;;;3.75;;
35042;SDS011;21230;51.170;17.024;2022-12-29T12:53:27;5.85;;;3.20;;
35042;SDS011;21230;51.170;17.024;2022-12-29T12:56:33;10.02;;;4.65;;
35042;SDS011;21230;51.170;17.024;2022-12-29T13:12:55;10.55;;;4.32;;
35042;SDS011;21230;51.170;17.024;2022-12-29T13:15:40;8.48;;;4.10;;
35042;SDS011;21230;51.170;17.024;2022-12-29T13:18:15;11.77;;;4.35;;
35042;SDS011;21230;51.170;17.024;2022-12-29T13:21:02;8.43;;;4.20;;
35042;SDS011;21230;51.170;17.024;2022-12-29T13:24:01;7.80;;;5.28;;
35042;SDS011;21230;51.170;17.024;2022-12-29T13:29:47;9.63;;;3.88;;
35042;SDS011;21230;51.170;17.024;2022-12-29T13:35:14;6.90;;;4.07;;
35042;SDS011;21230;51.170;17.024;2022-12-29T13:40:59;6.03;;;4.35;;
35042;SDS011;21230;51.170;17.024;2022-12-29T13:43:35;7.45;;;3.50;;
35042;SDS011;21230;51.170;17.024;2022-12-29T13:46:09;11.48;;;5.00;;
35042;SDS011;21230;51.170;17.024;2022-12-29T13:48:44;10.63;;;4.73;;
35042;SDS011;21230;51.170;17.024;2022-12-29T13:51:15;6.82;;;4.05;;
35042;SDS011;21230;51.170;17.024;2022-12-29T13:56:57;5.95;;;3.65;;
35042;SDS011;21230;51.170;17.024;2022-12-29T14:07:46;8.15;;;3.67;;
35042;SDS011;21230;51.170;17.024;2022-12-29T14:13:05;8.17;;;4.27;;
35042;SDS011;21230;51.170;17.024;2022-12-29T14:15:53;16.08;;;9.02;;
35042;SDS011;21230;51.170;17.024;2022-12-29T14:18:29;7.53;;;4.53;;
35042;SDS011;21230;51.170;17.024;2022-12-29T14:21:00;9.30;;;4.15;;
35042;SDS011;21230;51.170;17.024;2022-12-29T14:23:45;6.85;;;4.95;;
35042;SDS011;21230;51.170;17.024;2022-12-29T14:26:17;7.07;;;4.20;;
35042;SDS011;21230;51.170;17.024;2022-12-29T14:31:48;7.60;;;5.00;;
35042;SDS011;21230;51.170;17.024;2022-12-29T14:34:15;8.80;;;4.18;;
35042;SDS011;21230;51.170;17.024;2022-12-29T14:37:00;9.23;;;5.32;;
35042;SDS011;21230;51.170;17.024;2022-12-29T14:39:29;10.65;;;5.65;;
35042;SDS011;21230;51.170;17.024;2022-12-29T14:44:34;15.98;;;5.20;;
35042;SDS011;21230;51.170;17.024;2022-12-29T14:50:17;13.40;;;5.30;;
35042;SDS011;21230;51.170;17.024;2022-12-29T14:52:56;7.65;;;5.85;;
35042;SDS011;21230;51.170;17.024;2022-12-29T14:58:06;11.63;;;6.18;;
35042;SDS011;21230;51.170;17.024;2022-12-29T15:03:23;9.90;;;6.28;;
35042;SDS011;21230;51.170;17.024;2022-12-29T15:06:13;13.02;;;6.97;;
35042;SDS011;21230;51.170;17.024;2022-12-29T15:11:20;14.05;;;7.47;;
35042;SDS011;21230;51.170;17.024;2022-12-29T15:13:54;17.30;;;7.70;;
35042;SDS011;21230;51.170;17.024;2022-12-29T15:16:28;16.70;;;7.35;;
35042;SDS011;21230;51.170;17.024;2022-12-29T15:19:00;15.93;;;7.35;;
35042;SDS011;21230;51.170;17.024;2022-12-29T15:21:31;14.68;;;7.68;;
35042;SDS011;21230;51.170;17.024;2022-12-29T15:23:59;13.10;;;8.15;;
35042;SDS011;21230;51.170;17.024;2022-12-29T15:26:38;19.65;;;9.13;;
35042;SDS011;21230;51.170;17.024;2022-12-29T15:29:25;17.05;;;8.25;;
35042;SDS011;21230;51.170;17.024;2022-12-29T15:32:00;13.13;;;8.00;;
35042;SDS011;21230;51.170;17.024;2022-12-29T15:34:36;17.48;;;7.22;;
35042;SDS011;21230;51.170;17.024;2022-12-29T15:37:05;16.98;;;8.05;;
35042;SDS011;21230;51.170;17.024;2022-12-29T15:39:34;15.68;;;8.20;;
35042;SDS011;21230;51.170;17.024;2022-12-29T15:42:22;10.95;;;6.63;;
35042;SDS011;21230;51.170;17.024;2022-12-29T15:45:04;17.60;;;7.70;;
35042;SDS011;21230;51.170;17.024;2022-12-29T15:47:31;12.90;;;7.20;;
35042;SDS011;21230;51.170;17.024;2022-12-29T15:52:45;16.95;;;8.48;;
35042;SDS011;21230;51.170;17.024;2022-12-29T15:55:18;18.20;;;9.20;;
35042;SDS011;21230;51.170;17.024;2022-12-29T15:57:48;15.88;;;7.95;;
35042;SDS011;21230;51.170;17.024;2022-12-29T16:00:28;21.05;;;9.00;;
35042;SDS011;21230;51.170;17.024;2022-12-29T16:02:57;18.85;;;8.80;;
35042;SDS011;21230;51.170;17.024;2022-12-29T16:05:31;14.25;;;8.27;;
35042;SDS011;21230;51.170;17.024;2022-12-29T16:07:59;19.60;;;9.15;;
35042;SDS011;21230;51.170;17.024;2022-12-29T16:10:37;14.32;;;7.82;;
35042;SDS011;21230;51.170;17.024;2022-12-29T16:15:36;17.30;;;9.18;;
35042;SDS011;21230;51.170;17.024;2022-12-29T16:18:02;16.02;;;9.07;;
35042;SDS011;21230;51.170;17.024;2022-12-29T16:20:37;24.23;;;11.40;;
35042;SDS011;21230;51.170;17.024;2022-12-29T16:25:42;20.65;;;8.50;;
35042;SDS011;21230;51.170;17.024;2022-12-29T16:28:16;17.27;;;10.57;;
35042;SDS011;21230;51.170;17.024;2022-12-29T16:30:44;30.95;;;10.38;;
35042;SDS011;21230;51.170;17.024;2022-12-29T16:39:24;15.65;;;8.60;;
35042;SDS011;21230;51.170;17.024;2022-12-29T16:41:51;25.40;;;10.98;;
35042;SDS011;21230;51.170;17.024;2022-12-29T16:44:25;21.98;;;10.55;;
35042;SDS011;21230;51.170;17.024;2022-12-29T16:49:42;19.60;;;9.25;;
35042;SDS011;21230;51.170;17.024;2022-12-29T16:52:17;12.43;;;8.95;;
35042;SDS011;21230;51.170;17.024;2022-12-29T16:54:44;19.92;;;10.10;;
35042;SDS011;21230;51.170;17.024;2022-12-29T16:57:33;16.63;;;9.70;;
35042;SDS011;21230;51.170;17.024;2022-12-29T17:00:03;19.50;;;9.23;;
35042;SDS011;21230;51.170;17.024;2022-12-29T17:02:31;16.60;;;9.57;;
35042;SDS011;21230;51.170;17.024;2022-12-29T17:04:59;17.85;;;10.75;;
35042;SDS011;21230;51.170;17.024;2022-12-29T17:07:26;19.05;;;9.98;;
35042;SDS011;21230;51.170;17.024;2022-12-29T17:09:53;23.17;;;12.63;;
35042;SDS011;21230;51.170;17.024;2022-12-29T17:12:26;16.70;;;9.73;;
35042;SDS011;21230;51.170;17.024;2022-12-29T17:14:58;19.23;;;9.88;;
35042;SDS011;21230;51.170;17.024;2022-12-29T17:17:34;20.63;;;10.02;;
35042;SDS011;21230;51.170;17.024;2022-12-29T17:20:15;22.75;;;11.27;;
35042;SDS011;21230;51.170;17.024;2022-12-29T17:22:43;23.30;;;12.03;;
35042;SDS011;21230;51.170;17.024;2022-12-29T17:25:17;19.88;;;9.80;;
35042;SDS011;21230;51.170;17.024;2022-12-29T17:27:52;23.73;;;11.48;;
35042;SDS011;21230;51.170;17.024;2022-12-29T17:30:23;19.35;;;11.30;;
35042;SDS011;21230;51.170;17.024;2022-12-29T17:32:51;18.50;;;9.75;;
35042;SDS011;21230;51.170;17.024;2022-12-29T17:35:21;22.02;;;11.23;;
35042;SDS011;21230;51.170;17.024;2022-12-29T17:37:47;16.73;;;10.07;;
35042;SDS011;21230;51.170;17.024;2022-12-29T17:40:34;18.92;;;10.35;;
35042;SDS011;21230;51.170;17.024;2022-12-29T17:43:00;21.88;;;10.60;;
35042;SDS011;21230;51.170;17.024;2022-12-29T17:45:27;21.88;;;10.20;;
35042;SDS011;21230;51.170;17.024;2022-12-29T17:47:55;19.33;;;9.18;;
35042;SDS011;21230;51.170;17.024;2022-12-29T17:52:51;25.10;;;11.93;;
35042;SDS011;21230;51.170;17.024;2022-12-29T17:57:46;32.80;;;14.30;;
35042;SDS011;21230;51.170;17.024;2022-12-29T18:00:13;22.17;;;11.50;;
35042;SDS011;21230;51.170;17.024;2022-12-29T18:02:41;19.23;;;10.02;;
35042;SDS011;21230;51.170;17.024;2022-12-29T18:05:24;23.58;;;10.95;;
35042;SDS011;21230;51.170;17.024;2022-12-29T18:07:52;20.00;;;10.50;;
35042;SDS011;21230;51.170;17.024;2022-12-29T18:10:22;17.40;;;10.40;;
35042;SDS011;21230;51.170;17.024;2022-12-29T18:12:51;17.63;;;12.30;;
35042;SDS011;21230;51.170;17.024;2022-12-29T18:15:20;22.15;;;11.90;;
35042;SDS011;21230;51.170;17.024;2022-12-29T18:20:15;19.55;;;10.98;;
35042;SDS011;21230;51.170;17.024;2022-12-29T18:22:41;22.75;;;10.20;;
35042;SDS011;21230;51.170;17.024;2022-12-29T18:25:30;18.50;;;9.90;;
35042;SDS011;21230;51.170;17.024;2022-12-29T18:28:15;22.98;;;10.95;;
35042;SDS011;21230;51.170;17.024;2022-12-29T18:30:41;19.67;;;11.70;;
35042;SDS011;21230;51.170;17.024;2022-12-29T18:33:11;23.35;;;11.18;;
35042;SDS011;21230;51.170;17.024;2022-12-29T18:35:44;18.23;;;11.77;;
35042;SDS011;21230;51.170;17.024;2022-12-29T18:40:55;22.27;;;10.32;;
35042;SDS011;21230;51.170;17.024;2022-12-29T18:43:22;23.55;;;9.40;;
35042;SDS011;21230;51.170;17.024;2022-12-29T18:45:48;24.48;;;11.15;;
35042;SDS011;21230;51.170;17.024;2022-12-29T18:48:15;24.13;;;12.60;;
35042;SDS011;21230;51.170;17.024;2022-12-29T18:50:43;25.13;;;12.85;;
35042;SDS011;21230;51.170;17.024;2022-12-29T18:53:16;24.95;;;13.25;;
35042;SDS011;21230;51.170;17.024;2022-12-29T18:55:47;20.98;;;12.15;;
35042;SDS011;21230;51.170;17.024;2022-12-29T18:58:15;25.98;;;12.75;;
35042;SDS011;21230;51.170;17.024;2022-12-29T19:00:41;22.20;;;11.93;;
35042;SDS011;21230;51.170;17.024;2022-12-29T19:03:09;23.08;;;11.35;;
35042;SDS011;21230;51.170;17.024;2022-12-29T19:08:03;21.10;;;9.50;;
35042;SDS011;21230;51.170;17.024;2022-12-29T19:10:31;21.70;;;13.48;;
35042;SDS011;21230;51.170;17.024;2022-12-29T19:12:58;24.40;;;10.52;;
35042;SDS011;21230;51.170;17.024;2022-12-29T19:15:30;22.85;;;10.57;;
35042;SDS011;21230;51.170;17.024;2022-12-29T19:18:02;23.00;;;11.35;;
35042;SDS011;21230;51.170;17.024;2022-12-29T19:22:56;15.40;;;9.10;;
35042;SDS011;21230;51.170;17.024;2022-12-29T19:25:23;20.83;;;12.68;;
35042;SDS011;21230;51.170;17.024;2022-12-29T19:27:50;21.40;;;11.20;;
35042;SDS011;21230;51.170;17.024;2022-12-29T19:30:16;27.10;;;14.18;;
35042;SDS011;21230;51.170;17.024;2022-12-29T19:32:46;31.70;;;14.85;;
35042;SDS011;21230;51.170;17.024;2022-12-29T19:35:14;23.55;;;10.98;;
35042;SDS011;21230;51.170;17.024;2022-12-29T19:37:40;20.77;;;9.73;;
35042;SDS011;21230;51.170;17.024;2022-12-29T19:40:07;19.65;;;9.77;;
35042;SDS011;21230;51.170;17.024;2022-12-29T19:42:36;29.60;;;12.15;;
35042;SDS011;21230;51.170;17.024;2022-12-29T19:45:02;20.08;;;11.13;;
35042;SDS011;21230;51.170;17.024;2022-12-29T19:47:30;27.95;;;12.43;;
35042;SDS011;21230;51.170;17.024;2022-12-29T19:49:57;16.98;;;10.70;;
35042;SDS011;21230;51.170;17.024;2022-12-29T19:52:25;24.45;;;11.35;;
35042;SDS011;21230;51.170;17.024;2022-12-29T19:54:55;24.00;;;12.80;;
35042;SDS011;21230;51.170;17.024;2022-12-29T19:57:22;23.48;;;11.23;;
35042;SDS011;21230;51.170;17.024;2022-12-29T19:59:49;23.63;;;10.27;;
35042;SDS011;21230;51.170;17.024;2022-12-29T20:04:51;19.85;;;12.63;;
35042;SDS011;21230;51.170;17.024;2022-12-29T20:07:22;23.38;;;11.77;;
35042;SDS011;21230;51.170;17.024;2022-12-29T20:09:49;19.73;;;12.18;;
35042;SDS011;21230;51.170;17.024;2022-12-29T20:12:15;20.67;;;11.57;;
35042;SDS011;21230;51.170;17.024;2022-12-29T20:14:42;19.00;;;10.70;;
35042;SDS011;21230;51.170;17.024;2022-12-29T20:17:11;22.77;;;9.90;;
35042;SDS011;21230;51.170;17.024;2022-12-29T20:22:05;24.48;;;9.50;;
35042;SDS011;21230;51.170;17.024;2022-12-29T20:24:39;15.93;;;9.10;;
35042;SDS011;21230;51.170;17.024;2022-12-29T20:27:06;21.02;;;9.45;;
35042;SDS011;21230;51.170;17.024;2022-12-29T20:29:34;24.10;;;11.15;;
35042;SDS011;21230;51.170;17.024;2022-12-29T20:32:09;14.50;;;8.52;;
35042;SDS011;21230;51.170;17.024;2022-12-29T20:34:47;14.32;;;9.75;;
35042;SDS011;21230;51.170;17.024;2022-12-29T20:37:16;23.40;;;13.85;;
35042;SDS011;21230;51.170;17.024;2022-12-29T20:39:44;19.02;;;10.30;;
35042;SDS011;21230;51.170;17.024;2022-12-29T20:42:10;19.25;;;10.75;;
35042;SDS011;21230;51.170;17.024;2022-12-29T20:44:36;24.35;;;10.68;;
35042;SDS011;21230;51.170;17.024;2022-12-29T20:47:03;20.52;;;9.55;;
35042;SDS011;21230;51.170;17.024;2022-12-29T20:49:30;15.73;;;9.98;;
35042;SDS011;21230;51.170;17.024;2022-12-29T20:54:25;15.25;;;8.57;;
35042;SDS011;21230;51.170;17.024;2022-12-29T20:56:51;17.83;;;9.90;;
35042;SDS011;21230;51.170;17.024;2022-12-29T20:59:17;15.85;;;9.98;;
35042;SDS011;21230;51.170;17.024;2022-12-29T21:01:43;22.48;;;13.40;;
35042;SDS011;21230;51.170;17.024;2022-12-29T21:04:09;23.35;;;11.93;;
35042;SDS011;21230;51.170;17.024;2022-12-29T21:06:35;22.27;;;12.90;;
35042;SDS011;21230;51.170;17.024;2022-12-29T21:09:01;19.88;;;10.13;;
35042;SDS011;21230;51.170;17.024;2022-12-29T21:11:28;27.05;;;15.55;;
35042;SDS011;21230;51.170;17.024;2022-12-29T21:13:57;22.90;;;10.55;;
35042;SDS011;21230;51.170;17.024;2022-12-29T21:16:23;18.13;;;10.82;;
35042;SDS011;21230;51.170;17.024;2022-12-29T21:18:49;26.67;;;13.70;;
35042;SDS011;21230;51.170;17.024;2022-12-29T21:21:17;15.52;;;10.60;;
35042;SDS011;21230;51.170;17.024;2022-12-29T21:23:45;20.15;;;11.68;;
35042;SDS011;21230;51.170;17.024;2022-12-29T21:26:15;22.33;;;11.90;;
35042;SDS011;21230;51.170;17.024;2022-12-29T21:28:43;22.10;;;10.88;;
35042;SDS011;21230;51.170;17.024;2022-12-29T21:31:26;17.85;;;10.93;;
35042;SDS011;21230;51.170;17.024;2022-12-29T21:33:55;15.93;;;9.27;;
35042;SDS011;21230;51.170;17.024;2022-12-29T21:36:21;22.13;;;10.43;;
35042;SDS011;21230;51.170;17.024;2022-12-29T21:38:48;22.08;;;9.90;;
35042;SDS011;21230;51.170;17.024;2022-12-29T21:41:18;16.42;;;8.85;;
35042;SDS011;21230;51.170;17.024;2022-12-29T21:43:45;18.52;;;9.45;;
35042;SDS011;21230;51.170;17.024;2022-12-29T21:46:32;15.93;;;10.75;;
35042;SDS011;21230;51.170;17.024;2022-12-29T21:48:59;22.60;;;12.75;;
35042;SDS011;21230;51.170;17.024;2022-12-29T21:51:26;16.48;;;10.40;;
35042;SDS011;21230;51.170;17.024;2022-12-29T21:54:10;19.48;;;11.52;;
35042;SDS011;21230;51.170;17.024;2022-12-29T21:56:54;15.95;;;9.90;;
35042;SDS011;21230;51.170;17.024;2022-12-29T21:59:20;14.93;;;10.05;;
35042;SDS011;21230;51.170;17.024;2022-12-29T22:02:09;21.08;;;11.38;;
35042;SDS011;21230;51.170;17.024;2022-12-29T22:05:00;16.92;;;10.20;;
35042;SDS011;21230;51.170;17.024;2022-12-29T22:07:46;15.50;;;9.32;;
35042;SDS011;21230;51.170;17.024;2022-12-29T22:10:31;18.45;;;10.00;;
35042;SDS011;21230;51.170;17.024;2022-12-29T22:13:15;20.67;;;9.88;;
35042;SDS011;21230;51.170;17.024;2022-12-29T22:15:41;17.00;;;9.20;;
35042;SDS011;21230;51.170;17.024;2022-12-29T22:18:07;18.38;;;10.32;;
35042;SDS011;21230;51.170;17.024;2022-12-29T22:20:33;18.33;;;10.27;;
35042;SDS011;21230;51.170;17.024;2022-12-29T22:23:00;23.08;;;11.43;;
35042;SDS011;21230;51.170;17.024;2022-12-29T22:25:27;23.25;;;11.70;;
35042;SDS011;21230;51.170;17.024;2022-12-29T22:27:53;20.17;;;11.60;;
35042;SDS011;21230;51.170;17.024;2022-12-29T22:30:19;22.88;;;11.70;;
35042;SDS011;21230;51.170;17.024;2022-12-29T22:32:45;24.13;;;12.95;;
35042;SDS011;21230;51.170;17.024;2022-12-29T22:35:11;20.58;;;12.90;;
35042;SDS011;21230;51.170;17.024;2022-12-29T22:37:39;22.95;;;12.30;;
35042;SDS011;21230;51.170;17.024;2022-12-29T22:40:08;21.75;;;13.10;;
35042;SDS011;21230;51.170;17.024;2022-12-29T22:42:35;21.60;;;12.52;;
35042;SDS011;21230;51.170;17.024;2022-12-29T22:45:02;24.95;;;13.77;;
35042;SDS011;21230;51.170;17.024;2022-12-29T22:47:29;25.90;;;15.05;;
35042;SDS011;21230;51.170;17.024;2022-12-29T22:49:55;27.15;;;12.27;;
35042;SDS011;21230;51.170;17.024;2022-12-29T22:52:21;21.27;;;13.13;;
35042;SDS011;21230;51.170;17.024;2022-12-29T22:54:47;25.35;;;12.75;;
35042;SDS011;21230;51.170;17.024;2022-12-29T22:57:13;26.10;;;12.50;;
35042;SDS011;21230;51.170;17.024;2022-12-29T22:59:40;28.15;;;15.60;;
35042;SDS011;21230;51.170;17.024;2022-12-29T23:02:06;27.83;;;14.60;;
35042;SDS011;21230;51.170;17.024;2022-12-29T23:04:32;30.27;;;14.00;;
35042;SDS011;21230;51.170;17.024;2022-12-29T23:06:58;25.00;;;14.50;;
35042;SDS011;21230;51.170;17.024;2022-12-29T23:09:24;38.75;;;23.90;;
35042;SDS011;21230;51.170;17.024;2022-12-29T23:11:50;30.35;;;13.85;;
35042;SDS011;21230;51.170;17.024;2022-12-29T23:14:17;23.33;;;13.20;;